This is the latest recevied weather packets stored in our database for station/object KC1OEK-13. If no packets are shown the sender has not sent any weather packets the latest 10 day(s).
| Time | Temp. | Humidity | Pressure | Rain* | Wind** | Luminosity | Snow |
|---|---|---|---|---|---|---|---|
| 1777834335 | 12.78° C | 37% | 1011 hPa | 0 mm | - | 826 W/m² | - |
| 1777833120 | 11.67° C | 39% | 1011.2 hPa | 0 mm | - | 271 W/m² | - |
| 1777832818 | 11.67° C | 38% | 1011.1 hPa | 0 mm | - | 322 W/m² | - |
| 1777832516 | 11.67° C | 37% | 1011.2 hPa | 0 mm | - | 910 W/m² | - |
| 1777831606 | 12.22° C | 37% | 1011.1 hPa | 0 mm | - | 351 W/m² | - |
| 1777829484 | 11.11° C | 38% | 1011.2 hPa | 0 mm | - | 350 W/m² | - |
| 1777827363 | 11.11° C | 41% | 1011.2 hPa | 0 mm | - | 259 W/m² | - |
| 1777826453 | 10° C | 42% | 1011.5 hPa | 0 mm | - | 603 W/m² | - |
| 1777825847 | 10° C | 44% | 1011.5 hPa | 0 mm | - | 441 W/m² | - |
| 1777825241 | 10° C | 48% | 1011.5 hPa | 0 mm | - | 408 W/m² | - |
| 1777824634 | 9.44° C | 49% | 1011.7 hPa | 0 mm | - | 241 W/m² | - |
| 1777824027 | 9.44° C | 48% | 1011.8 hPa | 0 mm | - | 156 W/m² | - |
| 1777822816 | 9.44° C | 50% | 1011.7 hPa | 0 mm | - | 554 W/m² | - |
| 1777820697 | 8.33° C | 56% | 1011.8 hPa | 0 mm | - | 475 W/m² | - |
| 1777817061 | 9.44° C | 55% | 1011.4 hPa | 0 mm | - | 599 W/m² | - |
| 1777816455 | 9.44° C | 56% | 1011.4 hPa | 0 mm | - | 288 W/m² | - |
| 1777816152 | 8.89° C | 56% | 1011.2 hPa | 0 mm | - | 583 W/m² | - |
| 1777813122 | 7.78° C | 62% | 1011.6 hPa | 0 mm | - | 433 W/m² | - |
| 1777811611 | 7.22° C | 64% | 1011.7 hPa | 0 mm | - | 339 W/m² | - |
| 1777808877 | 5.56° C | 68% | 1011.6 hPa | 0 mm | - | 96 W/m² | - |
| 1777808574 | 5.56° C | 69% | 1011.6 hPa | 0 mm | - | 106 W/m² | - |
| 1777807970 | 5.56° C | 70% | 1011.5 hPa | 0 mm | - | 52 W/m² | - |
| 1777806453 | 4.44° C | 73% | 1011.5 hPa | 0 mm | - | 36 W/m² | - |
| 1777806150 | 3.89° C | 74% | 1011.5 hPa | 0 mm | - | 35 W/m² | - |
| 1777805846 | 3.89° C | 74% | 1011.2 hPa | 0 mm | - | 33 W/m² | - |
* Rain latest hour (hover to see other rain measurements)
** Current wind speed in m/s (hover to see current wind gust speed)